createdAt,value
2019-01-02T00:01:29.461Z,13.80
2019-01-02T00:04:01.410Z,12.43
2019-01-02T00:06:32.939Z,11.95
2019-01-02T00:09:05.749Z,12.50
2019-01-02T00:11:37.242Z,12.05
2019-01-02T00:14:08.729Z,10.80
2019-01-02T00:16:40.058Z,11.28
2019-01-02T00:19:11.655Z,11.05
2019-01-02T00:21:43.263Z,11.20
2019-01-02T00:24:14.715Z,9.38
2019-01-02T00:26:46.205Z,10.30
2019-01-02T00:29:17.788Z,10.50
2019-01-02T00:31:49.224Z,10.58
2019-01-02T00:34:21.193Z,11.00
2019-01-02T00:36:52.549Z,12.10
2019-01-02T00:39:24.171Z,10.90
2019-01-02T00:41:55.647Z,11.75
2019-01-02T00:44:27.348Z,11.68
2019-01-02T00:46:58.873Z,10.58
2019-01-02T00:49:30.332Z,11.48
2019-01-02T00:52:01.715Z,11.85
2019-01-02T00:54:33.044Z,10.90
2019-01-02T00:57:04.702Z,10.55
2019-01-02T00:59:36.090Z,11.20
2019-01-02T01:02:07.697Z,11.50
2019-01-02T01:04:39.153Z,11.10
2019-01-02T01:07:10.439Z,11.97
2019-01-02T01:09:41.949Z,11.20
2019-01-02T01:12:13.448Z,10.80
2019-01-02T01:14:44.976Z,11.83
2019-01-02T01:17:16.649Z,12.18
2019-01-02T01:19:48.043Z,11.35
2019-01-02T01:22:19.746Z,11.50
2019-01-02T01:24:51.279Z,13.00
2019-01-02T01:27:22.751Z,11.40
2019-01-02T01:29:54.461Z,11.28
2019-01-02T01:32:25.896Z,10.23
2019-01-02T01:34:57.719Z,10.53
2019-01-02T01:37:29.124Z,10.32
2019-01-02T01:40:00.863Z,10.13
2019-01-02T01:42:32.797Z,9.85
2019-01-02T01:45:04.476Z,10.72
2019-01-02T01:47:36.145Z,9.95
2019-01-02T01:50:08.641Z,10.08
2019-01-02T01:52:40.190Z,10.95
2019-01-02T01:55:11.899Z,11.12
2019-01-02T01:57:43.657Z,11.30
2019-01-02T02:00:17.882Z,12.58
2019-01-02T02:02:49.246Z,10.98
2019-01-02T02:05:20.736Z,11.28
2019-01-02T02:07:52.136Z,10.38
2019-01-02T02:10:23.470Z,11.22
2019-01-02T02:12:54.739Z,11.43
2019-01-02T02:15:26.361Z,11.00
2019-01-02T02:17:58.023Z,10.53
2019-01-02T02:20:29.606Z,10.35
2019-01-02T02:23:01.158Z,10.32
2019-01-02T02:25:32.760Z,10.48
2019-01-02T02:28:04.457Z,10.65
2019-01-02T02:30:35.985Z,10.48
2019-01-02T02:33:07.467Z,10.32
2019-01-02T02:35:39.339Z,9.80
2019-01-02T02:38:11.070Z,10.38
2019-01-02T02:40:42.757Z,9.60
2019-01-02T02:43:14.006Z,9.75
2019-01-02T02:45:45.507Z,9.80
2019-01-02T02:48:17.258Z,9.75
2019-01-02T02:50:48.830Z,9.25
2019-01-02T02:53:20.179Z,8.83
2019-01-02T02:55:51.741Z,9.43
2019-01-02T02:58:23.133Z,10.03
2019-01-02T03:00:54.537Z,9.25
2019-01-02T03:03:26.246Z,9.45
2019-01-02T03:05:57.962Z,9.13
2019-01-02T03:08:29.247Z,9.20
2019-01-02T03:11:00.728Z,8.85
2019-01-02T03:13:32.407Z,9.45
2019-01-02T03:16:04.103Z,8.70
2019-01-02T03:18:35.669Z,10.58
2019-01-02T03:21:07.030Z,10.18
2019-01-02T03:23:38.490Z,8.90
2019-01-02T03:26:10.056Z,9.60
2019-01-02T03:28:41.266Z,8.85
2019-01-02T03:31:13.126Z,9.55
2019-01-02T03:33:45.049Z,10.18
2019-01-02T03:36:16.527Z,9.38
2019-01-02T03:38:47.970Z,10.03
2019-01-02T03:41:19.625Z,8.43
2019-01-02T03:43:51.106Z,9.70
2019-01-02T03:46:22.873Z,9.20
2019-01-02T03:48:54.573Z,10.43
2019-01-02T03:51:26.079Z,9.48
2019-01-02T03:53:57.458Z,10.25
2019-01-02T03:56:29.218Z,11.20
2019-01-02T03:59:00.503Z,11.38
2019-01-02T04:01:32.050Z,11.28
2019-01-02T04:04:03.417Z,15.13
2019-01-02T04:06:34.860Z,15.18
2019-01-02T04:09:08.656Z,12.35
2019-01-02T04:11:40.095Z,12.50
2019-01-02T04:14:11.455Z,13.45
2019-01-02T04:16:43.111Z,12.28
2019-01-02T04:19:14.416Z,10.55
2019-01-02T04:21:45.855Z,10.80
2019-01-02T04:24:17.309Z,11.53
2019-01-02T04:26:48.768Z,11.22
2019-01-02T04:29:20.117Z,12.78
2019-01-02T04:31:51.672Z,11.57
2019-01-02T04:34:22.952Z,11.45
2019-01-02T04:36:54.464Z,10.08
2019-01-02T04:39:25.887Z,11.00
2019-01-02T04:41:57.344Z,13.00
2019-01-02T04:44:28.794Z,11.55
2019-01-02T04:46:59.961Z,11.12
2019-01-02T04:49:31.350Z,11.90
2019-01-02T04:52:02.728Z,12.70
2019-01-02T04:54:34.114Z,11.40
2019-01-02T04:57:05.508Z,10.55
2019-01-02T04:59:36.815Z,11.55
2019-01-02T05:02:08.402Z,10.95
2019-01-02T05:04:39.631Z,10.68
2019-01-02T05:07:11.229Z,10.93
2019-01-02T05:09:42.592Z,10.35
2019-01-02T05:12:13.915Z,11.85
2019-01-02T05:14:45.522Z,13.10
2019-01-02T05:17:16.855Z,13.00
2019-01-02T05:19:48.314Z,11.08
2019-01-02T05:22:19.715Z,11.18
2019-01-02T05:24:52.181Z,10.48
2019-01-02T05:27:23.651Z,11.12
2019-01-02T05:29:54.978Z,11.53
2019-01-02T05:32:26.368Z,12.60
2019-01-02T05:34:57.853Z,13.80
2019-01-02T05:37:29.246Z,12.78
2019-01-02T05:40:00.631Z,14.50
2019-01-02T05:42:32.234Z,13.22
2019-01-02T05:45:03.948Z,14.18
2019-01-02T05:47:35.482Z,13.68
2019-01-02T05:50:07.255Z,12.85
2019-01-02T05:52:38.859Z,12.28
2019-01-02T05:55:10.287Z,13.20
2019-01-02T05:57:41.694Z,13.08
2019-01-02T06:00:14.802Z,13.30
2019-01-02T06:02:46.282Z,13.83
2019-01-02T06:05:17.377Z,15.10
2019-01-02T06:07:48.785Z,15.13
2019-01-02T06:10:19.837Z,16.37
2019-01-02T06:12:51.432Z,16.20
2019-01-02T06:15:22.815Z,15.43
2019-01-02T06:17:54.102Z,14.85
2019-01-02T06:20:25.199Z,15.40
2019-01-02T06:22:56.502Z,16.00
2019-01-02T06:25:28.059Z,15.72
2019-01-02T06:27:59.366Z,13.93
2019-01-02T06:30:30.701Z,16.15
2019-01-02T06:33:02.181Z,16.23
2019-01-02T06:35:33.251Z,17.50
2019-01-02T06:38:04.577Z,18.35
2019-01-02T06:40:35.821Z,20.25
2019-01-02T06:43:07.218Z,20.95
2019-01-02T06:45:38.592Z,20.15
2019-01-02T06:48:10.101Z,18.40
2019-01-02T06:50:41.661Z,17.42
2019-01-02T06:53:13.094Z,16.25
2019-01-02T06:55:44.428Z,15.00
2019-01-02T06:58:16.176Z,15.83
2019-01-02T07:00:47.598Z,16.10
2019-01-02T07:03:19.068Z,15.80
2019-01-02T07:05:50.080Z,16.95
2019-01-02T07:08:21.189Z,15.95
2019-01-02T07:10:52.384Z,19.55
2019-01-02T07:13:23.580Z,16.50
2019-01-02T07:15:55.140Z,17.60
2019-01-02T07:18:26.594Z,17.30
2019-01-02T07:20:57.776Z,16.15
2019-01-02T07:23:28.976Z,17.05
2019-01-02T07:26:00.070Z,16.90
2019-01-02T07:28:31.765Z,14.85
2019-01-02T07:31:03.248Z,15.10
2019-01-02T07:33:59.714Z,14.20
2019-01-02T07:37:06.750Z,14.30
2019-01-02T07:39:55.618Z,14.75
2019-01-02T07:43:16.525Z,15.68
2019-01-02T07:46:23.420Z,15.93
2019-01-02T07:49:40.002Z,16.02
2019-01-02T07:52:32.420Z,15.23
2019-01-02T07:56:02.392Z,17.05
2019-01-02T07:59:04.448Z,15.90
2019-01-02T08:02:10.736Z,15.25
2019-01-02T08:05:27.638Z,14.80
2019-01-02T08:08:28.478Z,15.55
2019-01-02T08:11:36.259Z,15.95
2019-01-02T08:14:44.385Z,16.02
2019-01-02T08:17:43.670Z,15.68
2019-01-02T08:20:55.781Z,13.72
2019-01-02T08:24:14.540Z,15.20
2019-01-02T08:27:27.994Z,14.63
2019-01-02T08:30:25.486Z,14.28
2019-01-02T08:33:30.452Z,15.13
2019-01-02T08:36:40.250Z,15.95
2019-01-02T08:39:53.581Z,19.17
2019-01-02T08:43:29.887Z,13.65
2019-01-02T08:46:44.068Z,13.08
2019-01-02T08:49:41.167Z,9.68
2019-01-02T08:52:55.138Z,10.48
2019-01-02T08:56:01.067Z,9.28
2019-01-02T08:59:20.040Z,11.30
2019-01-02T09:02:34.067Z,9.80
2019-01-02T09:05:21.431Z,8.10
2019-01-02T09:08:16.003Z,8.68
2019-01-02T09:11:14.631Z,8.60
2019-01-02T09:14:38.363Z,8.55
2019-01-02T09:17:44.366Z,8.75
2019-01-02T09:20:59.223Z,8.95
2019-01-02T09:24:12.790Z,9.30
2019-01-02T09:27:48.885Z,7.42
2019-01-02T09:30:58.616Z,7.75
2019-01-02T09:33:52.973Z,7.83
2019-01-02T09:36:59.522Z,7.15
2019-01-02T09:40:13.451Z,7.40
2019-01-02T09:43:26.192Z,7.50
2019-01-02T09:46:56.258Z,8.33
2019-01-02T09:50:01.758Z,6.92
2019-01-02T09:53:05.667Z,6.97
2019-01-02T09:56:05.174Z,7.72
2019-01-02T09:59:27.696Z,6.85
2019-01-02T10:02:51.770Z,8.28
2019-01-02T10:05:59.244Z,6.95
2019-01-02T10:09:11.079Z,7.90
2019-01-02T10:11:59.021Z,8.23
2019-01-02T10:15:01.355Z,8.05
2019-01-02T10:18:00.557Z,7.35
2019-01-02T10:21:36.939Z,7.75
2019-01-02T10:24:58.337Z,8.08
2019-01-02T10:28:23.775Z,8.48
2019-01-02T10:31:38.573Z,7.67
2019-01-02T10:34:27.892Z,7.03
2019-01-02T10:37:31.012Z,6.53
2019-01-02T10:40:51.929Z,9.23
2019-01-02T10:44:01.204Z,6.17
2019-01-02T10:47:06.920Z,6.12
2019-01-02T10:50:06.532Z,5.80
2019-01-02T10:53:30.024Z,18.75
2019-01-02T10:56:51.217Z,5.28
2019-01-02T11:00:07.481Z,7.20
2019-01-02T11:03:18.301Z,6.45
2019-01-02T11:06:32.483Z,5.80
2019-01-02T11:09:41.572Z,5.83
2019-01-02T11:12:58.278Z,5.85
2019-01-02T11:16:16.222Z,7.17
2019-01-02T11:19:52.148Z,6.00
2019-01-02T11:23:18.800Z,6.62
2019-01-02T11:26:37.066Z,6.30
2019-01-02T11:29:39.545Z,7.30
2019-01-02T11:32:46.713Z,7.20
2019-01-02T11:35:59.569Z,7.97
2019-01-02T11:38:53.165Z,7.40
2019-01-02T11:42:18.234Z,8.25
2019-01-02T11:45:14.329Z,6.20
2019-01-02T11:47:45.851Z,5.00
2019-01-02T11:50:17.565Z,5.00
2019-01-02T11:52:48.850Z,4.75
2019-01-02T11:55:20.395Z,4.90
2019-01-02T11:57:51.769Z,4.87
2019-01-02T12:00:23.298Z,4.97
2019-01-02T12:02:54.720Z,5.58
2019-01-02T12:05:26.082Z,6.65
2019-01-02T12:07:57.682Z,6.25
2019-01-02T12:10:29.121Z,7.47
2019-01-02T12:13:00.604Z,7.62
2019-01-02T12:15:31.778Z,5.45
2019-01-02T12:18:02.858Z,5.12
2019-01-02T12:20:35.123Z,4.92
2019-01-02T12:23:06.378Z,5.00
2019-01-02T12:25:37.629Z,4.53
2019-01-02T12:28:09.176Z,6.10
2019-01-02T12:30:40.509Z,6.10
2019-01-02T12:33:12.136Z,6.10
2019-01-02T12:35:43.571Z,6.85
2019-01-02T12:38:15.027Z,6.85
2019-01-02T12:40:46.699Z,7.20
2019-01-02T12:43:18.086Z,6.97
2019-01-02T12:45:49.418Z,6.40
2019-01-02T12:48:21.061Z,6.75
2019-01-02T12:50:52.174Z,6.40
2019-01-02T12:53:23.354Z,6.92
2019-01-02T12:55:54.416Z,7.28
2019-01-02T12:58:25.533Z,7.78
2019-01-02T13:01:07.690Z,6.80
2019-01-02T13:04:15.368Z,8.38
2019-01-02T13:07:25.578Z,7.37
2019-01-02T13:10:28.184Z,6.15
2019-01-02T13:13:47.934Z,6.00
2019-01-02T13:16:53.493Z,6.15
2019-01-02T13:20:01.701Z,5.72
2019-01-02T13:22:58.029Z,7.05
2019-01-02T13:25:46.638Z,7.55
2019-01-02T13:29:00.530Z,6.75
2019-01-02T13:32:12.252Z,5.85
2019-01-02T13:35:08.107Z,6.15
2019-01-02T13:38:05.618Z,6.17
2019-01-02T13:41:19.320Z,5.08
2019-01-02T13:44:09.792Z,5.58
2019-01-02T13:47:27.563Z,5.45
2019-01-02T13:50:48.489Z,6.45
2019-01-02T13:53:21.682Z,6.00
2019-01-02T13:55:52.814Z,6.22
2019-01-02T13:58:24.078Z,5.53
2019-01-02T14:00:56.254Z,6.37
2019-01-02T14:03:27.675Z,7.03
2019-01-02T14:06:00.136Z,6.50
2019-01-02T14:08:31.594Z,7.47
2019-01-02T14:11:02.739Z,6.78
2019-01-02T14:13:33.949Z,7.00
2019-01-02T14:16:05.063Z,7.40
2019-01-02T14:18:36.242Z,7.80
2019-01-02T14:21:07.923Z,8.10
2019-01-02T14:23:39.387Z,8.85
2019-01-02T14:26:10.611Z,8.30
2019-01-02T14:28:41.844Z,9.33
2019-01-02T14:31:13.405Z,9.43
2019-01-02T14:33:44.583Z,7.80
2019-01-02T14:36:15.869Z,8.33
2019-01-02T14:38:47.257Z,12.40
2019-01-02T14:41:19.670Z,8.33
2019-01-02T14:43:51.091Z,8.50
2019-01-02T14:46:22.656Z,8.05
2019-01-02T14:48:53.818Z,8.10
2019-01-02T14:51:25.286Z,9.00
2019-01-02T14:53:56.675Z,8.38
2019-01-02T14:56:28.143Z,8.95
2019-01-02T14:58:59.273Z,9.98
2019-01-02T15:01:30.645Z,9.45
2019-01-02T15:04:02.106Z,8.95
2019-01-02T15:06:33.247Z,8.65
2019-01-02T15:09:05.768Z,8.58
2019-01-02T15:11:37.113Z,8.88
2019-01-02T15:14:08.697Z,7.72
2019-01-02T15:16:44.529Z,9.43
2019-01-02T15:19:13.150Z,10.60
2019-01-02T15:21:44.316Z,9.35
2019-01-02T15:24:15.801Z,9.88
2019-01-02T15:26:47.358Z,9.60
2019-01-02T15:29:18.630Z,9.50
2019-01-02T15:31:50.080Z,10.93
2019-01-02T15:34:21.180Z,12.37
2019-01-02T15:36:52.630Z,13.88
2019-01-02T15:39:23.858Z,10.80
2019-01-02T15:41:55.246Z,10.70
2019-01-02T15:44:26.681Z,9.58
2019-01-02T15:46:57.956Z,10.85
2019-01-02T15:49:29.150Z,10.63
2019-01-02T15:52:00.559Z,11.57
2019-01-02T15:54:31.916Z,13.62
2019-01-02T15:57:03.392Z,13.08
2019-01-02T15:59:34.811Z,12.73
2019-01-02T16:02:06.195Z,11.43
2019-01-02T16:04:41.074Z,11.20
2019-01-02T16:07:10.773Z,10.32
2019-01-02T16:09:42.164Z,11.18
2019-01-02T16:12:13.797Z,10.88
2019-01-02T16:14:45.177Z,10.53
2019-01-02T16:17:17.224Z,10.45
2019-01-02T16:19:48.321Z,9.63
2019-01-02T16:22:20.703Z,9.98
2019-01-02T16:24:52.059Z,9.43
2019-01-02T16:27:23.499Z,8.90
2019-01-02T16:29:54.878Z,8.98
2019-01-02T16:32:26.317Z,8.10
2019-01-02T16:34:57.619Z,8.85
2019-01-02T16:37:28.887Z,10.10
2019-01-02T16:40:00.319Z,14.35
2019-01-02T16:42:32.519Z,9.58
2019-01-02T16:45:03.961Z,9.25
2019-01-02T16:47:36.054Z,8.68
2019-01-02T16:50:08.259Z,7.97
2019-01-02T16:52:39.390Z,7.92
2019-01-02T16:55:10.778Z,8.85
2019-01-02T16:57:42.667Z,9.00
2019-01-02T17:00:15.002Z,9.18
2019-01-02T17:02:46.462Z,8.45
2019-01-02T17:05:17.856Z,9.90
2019-01-02T17:07:49.865Z,7.25
2019-01-02T17:10:21.537Z,6.78
2019-01-02T17:12:52.686Z,7.85
2019-01-02T17:15:23.982Z,8.38
2019-01-02T17:17:55.133Z,9.15
2019-01-02T17:20:26.271Z,7.65
2019-01-02T17:22:57.644Z,7.22
2019-01-02T17:25:28.894Z,8.65
2019-01-02T17:28:00.139Z,8.60
2019-01-02T17:30:31.203Z,8.43
2019-01-02T17:33:02.347Z,6.83
2019-01-02T17:35:33.551Z,7.90
2019-01-02T17:38:05.703Z,7.75
2019-01-02T17:40:37.053Z,7.22
2019-01-02T17:43:08.197Z,6.97
2019-01-02T17:45:39.264Z,7.25
2019-01-02T17:48:10.577Z,6.72
2019-01-02T17:50:41.852Z,9.43
2019-01-02T17:53:13.156Z,7.72
2019-01-02T17:55:44.511Z,7.85
2019-01-02T17:58:15.651Z,7.72
2019-01-02T18:00:46.778Z,8.18
2019-01-02T18:03:18.127Z,8.23
2019-01-02T18:05:49.351Z,8.00
2019-01-02T18:08:21.687Z,8.95
2019-01-02T18:10:52.890Z,9.28
2019-01-02T18:13:24.043Z,9.33
2019-01-02T18:15:55.441Z,9.18
2019-01-02T18:18:28.095Z,8.43
2019-01-02T18:20:59.459Z,11.25
2019-01-02T18:23:30.822Z,8.40
2019-01-02T18:26:02.211Z,9.25
2019-01-02T18:28:33.387Z,8.35
2019-01-02T18:31:04.777Z,9.10
2019-01-02T18:33:36.341Z,10.15
2019-01-02T18:36:07.854Z,9.08
2019-01-02T18:38:38.956Z,9.18
2019-01-02T18:41:10.324Z,11.05
2019-01-02T18:43:41.809Z,10.68
2019-01-02T18:46:13.112Z,11.10
2019-01-02T18:48:44.441Z,10.03
2019-01-02T18:51:15.630Z,10.65
2019-01-02T18:53:46.779Z,9.75
2019-01-02T18:56:18.113Z,9.15
2019-01-02T18:58:49.447Z,8.05
2019-01-02T19:01:20.814Z,8.28
2019-01-02T19:03:52.364Z,10.20
2019-01-02T19:06:23.704Z,7.72
2019-01-02T19:08:55.027Z,8.40
2019-01-02T19:11:27.500Z,8.38
2019-01-02T19:13:58.949Z,8.30
2019-01-02T19:16:30.240Z,9.20
2019-01-02T19:19:01.608Z,10.00
2019-01-02T19:21:32.832Z,9.90
2019-01-02T19:24:04.411Z,9.85
2019-01-02T19:26:35.730Z,10.38
2019-01-02T19:29:07.005Z,10.15
2019-01-02T19:31:38.305Z,8.80
2019-01-02T19:34:09.793Z,9.08
2019-01-02T19:36:41.467Z,9.60
2019-01-02T19:39:13.026Z,9.45
2019-01-02T19:41:44.466Z,10.15
2019-01-02T19:44:16.230Z,10.25
2019-01-02T19:46:47.638Z,10.80
2019-01-02T19:49:18.999Z,9.63
2019-01-02T19:51:50.421Z,9.08
2019-01-02T19:54:21.602Z,9.18
2019-01-02T19:56:52.618Z,8.63
2019-01-02T19:59:23.902Z,7.70
2019-01-02T20:01:55.318Z,8.03
2019-01-02T20:04:26.494Z,7.50
2019-01-02T20:06:58.020Z,7.80
2019-01-02T20:09:29.436Z,7.75
2019-01-02T20:12:00.837Z,9.23
2019-01-02T20:14:32.199Z,9.53
2019-01-02T20:17:03.582Z,8.43
2019-01-02T20:19:34.848Z,8.23
2019-01-02T20:22:06.241Z,7.97
2019-01-02T20:24:37.813Z,7.92
2019-01-02T20:27:09.221Z,7.40
2019-01-02T20:29:40.608Z,7.80
2019-01-02T20:32:12.105Z,7.20
2019-01-02T20:34:43.388Z,7.90
2019-01-02T20:37:14.800Z,7.85
2019-01-02T20:39:46.146Z,7.65
2019-01-02T20:42:17.470Z,7.33
2019-01-02T20:44:49.180Z,8.15
2019-01-02T20:47:20.573Z,7.17
2019-01-02T20:49:52.034Z,8.13
2019-01-02T20:52:23.388Z,8.30
2019-01-02T20:54:54.819Z,7.70
2019-01-02T20:57:26.313Z,7.70
2019-01-02T20:59:57.699Z,10.35
2019-01-02T21:02:28.876Z,10.53
2019-01-02T21:05:00.146Z,15.48
2019-01-02T21:07:31.623Z,9.65
2019-01-02T21:10:03.099Z,10.20
2019-01-02T21:12:34.778Z,8.70
2019-01-02T21:15:06.849Z,9.50
2019-01-02T21:17:38.124Z,10.00
2019-01-02T21:20:10.494Z,10.70
2019-01-02T21:22:41.771Z,12.20
2019-01-02T21:25:13.076Z,11.28
2019-01-02T21:27:44.569Z,11.65
2019-01-02T21:30:15.923Z,11.08
2019-01-02T21:32:47.365Z,11.75
2019-01-02T21:35:18.702Z,9.95
2019-01-02T21:37:50.162Z,9.90
2019-01-02T21:40:21.533Z,10.45
2019-01-02T21:42:53.119Z,9.55
2019-01-02T21:45:24.263Z,10.40
2019-01-02T21:47:55.771Z,10.30
2019-01-02T21:50:27.077Z,10.45
2019-01-02T21:52:58.524Z,9.68
2019-01-02T21:55:30.093Z,10.60
2019-01-02T21:58:02.035Z,10.20
2019-01-02T22:00:33.628Z,11.15
2019-01-02T22:03:05.099Z,12.70
2019-01-02T22:05:36.522Z,10.85
2019-01-02T22:08:07.621Z,10.08
2019-01-02T22:10:38.812Z,10.98
2019-01-02T22:13:09.929Z,11.20
2019-01-02T22:15:41.077Z,10.85
2019-01-02T22:18:12.262Z,11.18
2019-01-02T22:20:43.736Z,10.82
2019-01-02T22:23:15.079Z,10.93
2019-01-02T22:25:46.242Z,10.75
2019-01-02T22:28:17.710Z,10.55
2019-01-02T22:30:49.268Z,11.88
2019-01-02T22:33:20.478Z,12.05
2019-01-02T22:35:52.057Z,10.00
2019-01-02T22:38:23.321Z,11.60
2019-01-02T22:40:54.582Z,11.95
2019-01-02T22:43:25.683Z,10.30
2019-01-02T22:45:56.830Z,10.45
2019-01-02T22:48:28.032Z,10.82
2019-01-02T22:50:59.324Z,10.18
2019-01-02T22:53:30.420Z,11.10
2019-01-02T22:56:01.939Z,10.48
2019-01-02T22:58:33.185Z,10.28
2019-01-02T23:01:07.801Z,10.00
2019-01-02T23:03:56.798Z,10.68
2019-01-02T23:06:45.683Z,10.72
2019-01-02T23:09:45.457Z,10.93
2019-01-02T23:12:34.309Z,10.78
2019-01-02T23:15:24.258Z,10.60
2019-01-02T23:18:32.585Z,10.08
2019-01-02T23:21:28.709Z,9.65
2019-01-02T23:24:31.732Z,10.38
2019-01-02T23:27:22.152Z,10.82
2019-01-02T23:30:15.389Z,10.25
2019-01-02T23:33:04.004Z,10.00
2019-01-02T23:35:53.154Z,10.60
2019-01-02T23:38:52.520Z,10.40
2019-01-02T23:41:41.575Z,10.03
2019-01-02T23:44:40.655Z,10.58
2019-01-02T23:47:42.916Z,10.30
2019-01-02T23:50:44.843Z,10.82
2019-01-02T23:53:33.750Z,11.38
2019-01-02T23:56:24.031Z,9.75
2019-01-02T23:59:06.438Z,9.50
